sensor_id;sensor_type;location;lat;lon;timestamp;P1;durP1;ratioP1;P2;durP2;ratioP2
2558;SDS011;1289;53.488;10.006;2023-03-02T00:01:48;30.23;;;18.83;;
2558;SDS011;1289;53.488;10.006;2023-03-02T00:04:16;27.90;;;17.73;;
2558;SDS011;1289;53.488;10.006;2023-03-02T00:06:46;26.20;;;17.97;;
2558;SDS011;1289;53.488;10.006;2023-03-02T00:09:14;28.80;;;18.17;;
2558;SDS011;1289;53.488;10.006;2023-03-02T00:11:41;27.57;;;18.70;;
2558;SDS011;1289;53.488;10.006;2023-03-02T00:14:08;30.63;;;17.07;;
2558;SDS011;1289;53.488;10.006;2023-03-02T00:16:36;31.07;;;18.80;;
2558;SDS011;1289;53.488;10.006;2023-03-02T00:19:04;30.40;;;18.57;;
2558;SDS011;1289;53.488;10.006;2023-03-02T00:21:30;31.57;;;18.70;;
2558;SDS011;1289;53.488;10.006;2023-03-02T00:23:57;28.13;;;18.00;;
2558;SDS011;1289;53.488;10.006;2023-03-02T00:26:23;34.07;;;21.60;;
2558;SDS011;1289;53.488;10.006;2023-03-02T00:28:50;29.30;;;17.37;;
2558;SDS011;1289;53.488;10.006;2023-03-02T00:31:17;28.17;;;18.10;;
2558;SDS011;1289;53.488;10.006;2023-03-02T00:33:45;33.63;;;18.93;;
2558;SDS011;1289;53.488;10.006;2023-03-02T00:36:15;29.67;;;19.37;;
2558;SDS011;1289;53.488;10.006;2023-03-02T00:38:42;32.90;;;18.93;;
2558;SDS011;1289;53.488;10.006;2023-03-02T00:41:09;32.87;;;19.47;;
2558;SDS011;1289;53.488;10.006;2023-03-02T00:43:36;31.43;;;19.97;;
2558;SDS011;1289;53.488;10.006;2023-03-02T00:46:07;31.97;;;19.53;;
2558;SDS011;1289;53.488;10.006;2023-03-02T00:48:34;28.13;;;19.53;;
2558;SDS011;1289;53.488;10.006;2023-03-02T00:51:02;26.23;;;17.97;;
2558;SDS011;1289;53.488;10.006;2023-03-02T00:53:29;26.57;;;17.47;;
2558;SDS011;1289;53.488;10.006;2023-03-02T00:55:56;24.40;;;17.10;;
2558;SDS011;1289;53.488;10.006;2023-03-02T00:58:24;28.80;;;17.57;;
2558;SDS011;1289;53.488;10.006;2023-03-02T01:00:51;30.00;;;17.67;;
2558;SDS011;1289;53.488;10.006;2023-03-02T01:03:18;30.77;;;19.20;;
2558;SDS011;1289;53.488;10.006;2023-03-02T01:05:44;32.70;;;19.60;;
2558;SDS011;1289;53.488;10.006;2023-03-02T01:08:13;28.40;;;17.33;;
2558;SDS011;1289;53.488;10.006;2023-03-02T01:10:40;29.50;;;16.67;;
2558;SDS011;1289;53.488;10.006;2023-03-02T01:13:06;25.60;;;17.77;;
2558;SDS011;1289;53.488;10.006;2023-03-02T01:15:33;24.27;;;15.70;;
2558;SDS011;1289;53.488;10.006;2023-03-02T01:18:01;27.40;;;16.20;;
2558;SDS011;1289;53.488;10.006;2023-03-02T01:20:28;25.87;;;16.57;;
2558;SDS011;1289;53.488;10.006;2023-03-02T01:22:55;24.77;;;16.27;;
2558;SDS011;1289;53.488;10.006;2023-03-02T01:25:23;28.07;;;16.90;;
2558;SDS011;1289;53.488;10.006;2023-03-02T01:27:49;27.30;;;17.50;;
2558;SDS011;1289;53.488;10.006;2023-03-02T01:30:16;39.33;;;21.47;;
2558;SDS011;1289;53.488;10.006;2023-03-02T01:32:42;32.73;;;19.10;;
2558;SDS011;1289;53.488;10.006;2023-03-02T01:35:09;25.73;;;16.47;;
2558;SDS011;1289;53.488;10.006;2023-03-02T01:37:36;25.20;;;16.33;;
2558;SDS011;1289;53.488;10.006;2023-03-02T01:40:03;23.73;;;16.93;;
2558;SDS011;1289;53.488;10.006;2023-03-02T01:42:35;24.27;;;17.20;;
2558;SDS011;1289;53.488;10.006;2023-03-02T01:45:03;24.30;;;17.67;;
2558;SDS011;1289;53.488;10.006;2023-03-02T01:47:31;31.20;;;18.73;;
2558;SDS011;1289;53.488;10.006;2023-03-02T01:50:18;25.90;;;17.47;;
2558;SDS011;1289;53.488;10.006;2023-03-02T01:52:51;23.20;;;15.47;;
2558;SDS011;1289;53.488;10.006;2023-03-02T01:55:19;23.13;;;15.97;;
2558;SDS011;1289;53.488;10.006;2023-03-02T01:57:50;24.97;;;14.73;;
2558;SDS011;1289;53.488;10.006;2023-03-02T02:00:19;26.77;;;16.00;;
2558;SDS011;1289;53.488;10.006;2023-03-02T02:02:48;38.83;;;20.60;;
2558;SDS011;1289;53.488;10.006;2023-03-02T02:05:16;32.80;;;18.97;;
2558;SDS011;1289;53.488;10.006;2023-03-02T02:07:45;29.43;;;19.37;;
2558;SDS011;1289;53.488;10.006;2023-03-02T02:10:13;30.57;;;18.97;;
2558;SDS011;1289;53.488;10.006;2023-03-02T02:12:40;26.07;;;17.97;;
2558;SDS011;1289;53.488;10.006;2023-03-02T02:15:09;23.20;;;14.33;;
2558;SDS011;1289;53.488;10.006;2023-03-02T02:17:36;18.63;;;13.30;;
2558;SDS011;1289;53.488;10.006;2023-03-02T02:20:04;19.97;;;13.87;;
2558;SDS011;1289;53.488;10.006;2023-03-02T02:22:42;20.93;;;15.27;;
2558;SDS011;1289;53.488;10.006;2023-03-02T02:25:17;20.17;;;14.43;;
2558;SDS011;1289;53.488;10.006;2023-03-02T02:27:49;21.23;;;15.10;;
2558;SDS011;1289;53.488;10.006;2023-03-02T02:30:17;21.40;;;13.93;;
2558;SDS011;1289;53.488;10.006;2023-03-02T02:32:46;16.93;;;12.33;;
2558;SDS011;1289;53.488;10.006;2023-03-02T02:35:15;20.40;;;12.63;;
2558;SDS011;1289;53.488;10.006;2023-03-02T02:37:45;17.90;;;12.40;;
2558;SDS011;1289;53.488;10.006;2023-03-02T02:40:17;21.53;;;12.67;;
2558;SDS011;1289;53.488;10.006;2023-03-02T02:42:46;18.83;;;12.97;;
2558;SDS011;1289;53.488;10.006;2023-03-02T02:45:19;18.73;;;12.93;;
2558;SDS011;1289;53.488;10.006;2023-03-02T02:47:47;27.80;;;13.30;;
2558;SDS011;1289;53.488;10.006;2023-03-02T02:50:18;19.77;;;13.07;;
2558;SDS011;1289;53.488;10.006;2023-03-02T02:52:47;21.20;;;14.23;;
2558;SDS011;1289;53.488;10.006;2023-03-02T02:55:19;19.73;;;13.60;;
2558;SDS011;1289;53.488;10.006;2023-03-02T02:57:48;20.83;;;13.80;;
2558;SDS011;1289;53.488;10.006;2023-03-02T03:00:17;21.90;;;14.80;;
2558;SDS011;1289;53.488;10.006;2023-03-02T03:02:46;23.20;;;16.67;;
2558;SDS011;1289;53.488;10.006;2023-03-02T03:05:15;27.43;;;15.50;;
2558;SDS011;1289;53.488;10.006;2023-03-02T03:07:43;20.07;;;13.60;;
2558;SDS011;1289;53.488;10.006;2023-03-02T03:10:10;16.97;;;13.83;;
2558;SDS011;1289;53.488;10.006;2023-03-02T03:12:39;22.13;;;14.87;;
2558;SDS011;1289;53.488;10.006;2023-03-02T03:15:07;19.57;;;13.83;;
2558;SDS011;1289;53.488;10.006;2023-03-02T03:17:36;20.77;;;13.77;;
2558;SDS011;1289;53.488;10.006;2023-03-02T03:20:04;18.20;;;14.23;;
2558;SDS011;1289;53.488;10.006;2023-03-02T03:22:35;19.37;;;13.20;;
2558;SDS011;1289;53.488;10.006;2023-03-02T03:25:05;22.50;;;12.83;;
2558;SDS011;1289;53.488;10.006;2023-03-02T03:27:32;17.93;;;11.80;;
2558;SDS011;1289;53.488;10.006;2023-03-02T03:30:00;18.87;;;13.30;;
2558;SDS011;1289;53.488;10.006;2023-03-02T03:32:30;16.00;;;12.40;;
2558;SDS011;1289;53.488;10.006;2023-03-02T03:35:01;20.27;;;13.30;;
2558;SDS011;1289;53.488;10.006;2023-03-02T03:37:33;17.63;;;12.70;;
2558;SDS011;1289;53.488;10.006;2023-03-02T03:40:01;16.70;;;12.10;;
2558;SDS011;1289;53.488;10.006;2023-03-02T03:42:30;23.03;;;14.20;;
2558;SDS011;1289;53.488;10.006;2023-03-02T03:44:58;18.50;;;11.83;;
2558;SDS011;1289;53.488;10.006;2023-03-02T03:47:26;19.43;;;13.13;;
2558;SDS011;1289;53.488;10.006;2023-03-02T03:49:53;20.27;;;12.23;;
2558;SDS011;1289;53.488;10.006;2023-03-02T03:52:21;16.77;;;12.53;;
2558;SDS011;1289;53.488;10.006;2023-03-02T03:54:55;17.13;;;13.87;;
2558;SDS011;1289;53.488;10.006;2023-03-02T03:57:22;14.20;;;11.03;;
2558;SDS011;1289;53.488;10.006;2023-03-02T03:59:49;16.53;;;12.43;;
2558;SDS011;1289;53.488;10.006;2023-03-02T04:02:16;22.57;;;14.93;;
2558;SDS011;1289;53.488;10.006;2023-03-02T04:04:43;21.13;;;12.23;;
2558;SDS011;1289;53.488;10.006;2023-03-02T04:07:13;21.83;;;13.93;;
2558;SDS011;1289;53.488;10.006;2023-03-02T04:09:42;18.30;;;12.50;;
2558;SDS011;1289;53.488;10.006;2023-03-02T04:12:11;14.20;;;11.67;;
2558;SDS011;1289;53.488;10.006;2023-03-02T04:14:42;16.40;;;11.50;;
2558;SDS011;1289;53.488;10.006;2023-03-02T04:17:10;18.87;;;12.63;;
2558;SDS011;1289;53.488;10.006;2023-03-02T04:19:40;17.33;;;12.57;;
2558;SDS011;1289;53.488;10.006;2023-03-02T04:22:08;22.43;;;14.30;;
2558;SDS011;1289;53.488;10.006;2023-03-02T04:24:35;22.03;;;12.60;;
2558;SDS011;1289;53.488;10.006;2023-03-02T04:27:04;18.10;;;12.50;;
2558;SDS011;1289;53.488;10.006;2023-03-02T04:29:33;22.37;;;13.60;;
2558;SDS011;1289;53.488;10.006;2023-03-02T04:32:01;22.33;;;12.40;;
2558;SDS011;1289;53.488;10.006;2023-03-02T04:34:30;19.23;;;12.33;;
2558;SDS011;1289;53.488;10.006;2023-03-02T04:36:58;19.37;;;12.63;;
2558;SDS011;1289;53.488;10.006;2023-03-02T04:39:25;20.57;;;11.70;;
2558;SDS011;1289;53.488;10.006;2023-03-02T04:41:52;19.23;;;13.00;;
2558;SDS011;1289;53.488;10.006;2023-03-02T04:44:20;16.60;;;13.17;;
2558;SDS011;1289;53.488;10.006;2023-03-02T04:46:47;16.00;;;12.20;;
2558;SDS011;1289;53.488;10.006;2023-03-02T04:49:15;22.97;;;13.70;;
2558;SDS011;1289;53.488;10.006;2023-03-02T04:51:43;20.90;;;13.20;;
2558;SDS011;1289;53.488;10.006;2023-03-02T04:54:12;17.93;;;11.80;;
2558;SDS011;1289;53.488;10.006;2023-03-02T04:56:39;17.57;;;12.00;;
2558;SDS011;1289;53.488;10.006;2023-03-02T04:59:06;19.53;;;13.37;;
2558;SDS011;1289;53.488;10.006;2023-03-02T05:01:34;17.27;;;12.80;;
2558;SDS011;1289;53.488;10.006;2023-03-02T05:04:01;21.07;;;12.90;;
2558;SDS011;1289;53.488;10.006;2023-03-02T05:06:28;26.37;;;15.13;;
2558;SDS011;1289;53.488;10.006;2023-03-02T05:08:54;19.40;;;12.90;;
2558;SDS011;1289;53.488;10.006;2023-03-02T05:11:23;18.43;;;12.67;;
2558;SDS011;1289;53.488;10.006;2023-03-02T05:13:51;19.37;;;13.27;;
2558;SDS011;1289;53.488;10.006;2023-03-02T05:16:19;17.20;;;11.70;;
2558;SDS011;1289;53.488;10.006;2023-03-02T05:18:47;18.13;;;12.17;;
2558;SDS011;1289;53.488;10.006;2023-03-02T05:21:14;17.07;;;12.80;;
2558;SDS011;1289;53.488;10.006;2023-03-02T05:23:42;19.37;;;13.10;;
2558;SDS011;1289;53.488;10.006;2023-03-02T05:26:09;20.10;;;13.43;;
2558;SDS011;1289;53.488;10.006;2023-03-02T05:28:36;17.00;;;11.40;;
2558;SDS011;1289;53.488;10.006;2023-03-02T05:31:03;16.03;;;11.17;;
2558;SDS011;1289;53.488;10.006;2023-03-02T05:33:30;14.73;;;10.60;;
2558;SDS011;1289;53.488;10.006;2023-03-02T05:35:58;17.57;;;11.77;;
2558;SDS011;1289;53.488;10.006;2023-03-02T05:38:26;20.33;;;12.70;;
2558;SDS011;1289;53.488;10.006;2023-03-02T05:40:55;18.47;;;11.87;;
2558;SDS011;1289;53.488;10.006;2023-03-02T05:43:22;21.00;;;14.00;;
2558;SDS011;1289;53.488;10.006;2023-03-02T05:45:48;18.57;;;12.63;;
2558;SDS011;1289;53.488;10.006;2023-03-02T05:48:15;20.30;;;13.63;;
2558;SDS011;1289;53.488;10.006;2023-03-02T05:50:41;18.57;;;12.40;;
2558;SDS011;1289;53.488;10.006;2023-03-02T05:53:09;17.40;;;11.40;;
2558;SDS011;1289;53.488;10.006;2023-03-02T05:55:36;18.10;;;12.00;;
2558;SDS011;1289;53.488;10.006;2023-03-02T05:58:03;18.90;;;13.03;;
2558;SDS011;1289;53.488;10.006;2023-03-02T06:00:29;17.30;;;11.50;;
2558;SDS011;1289;53.488;10.006;2023-03-02T06:02:56;17.00;;;11.53;;
2558;SDS011;1289;53.488;10.006;2023-03-02T06:05:23;19.70;;;13.70;;
2558;SDS011;1289;53.488;10.006;2023-03-02T06:07:49;25.20;;;13.40;;
2558;SDS011;1289;53.488;10.006;2023-03-02T06:10:17;17.67;;;12.60;;
2558;SDS011;1289;53.488;10.006;2023-03-02T06:12:44;19.07;;;12.40;;
2558;SDS011;1289;53.488;10.006;2023-03-02T06:15:10;21.73;;;14.20;;
2558;SDS011;1289;53.488;10.006;2023-03-02T06:17:38;22.23;;;14.70;;
2558;SDS011;1289;53.488;10.006;2023-03-02T06:20:06;21.57;;;12.60;;
2558;SDS011;1289;53.488;10.006;2023-03-02T06:22:36;20.40;;;13.43;;
2558;SDS011;1289;53.488;10.006;2023-03-02T06:25:05;25.57;;;14.77;;
2558;SDS011;1289;53.488;10.006;2023-03-02T06:27:34;24.93;;;14.70;;
2558;SDS011;1289;53.488;10.006;2023-03-02T06:30:02;24.63;;;14.60;;
2558;SDS011;1289;53.488;10.006;2023-03-02T06:32:29;22.40;;;13.80;;
2558;SDS011;1289;53.488;10.006;2023-03-02T06:34:58;23.43;;;13.50;;
2558;SDS011;1289;53.488;10.006;2023-03-02T06:37:25;29.23;;;15.20;;
2558;SDS011;1289;53.488;10.006;2023-03-02T06:39:52;23.47;;;14.33;;
2558;SDS011;1289;53.488;10.006;2023-03-02T06:42:19;27.23;;;14.40;;
2558;SDS011;1289;53.488;10.006;2023-03-02T06:44:47;20.43;;;12.90;;
2558;SDS011;1289;53.488;10.006;2023-03-02T06:47:15;21.93;;;12.97;;
2558;SDS011;1289;53.488;10.006;2023-03-02T06:49:42;22.10;;;13.73;;
2558;SDS011;1289;53.488;10.006;2023-03-02T06:52:08;24.47;;;14.60;;
2558;SDS011;1289;53.488;10.006;2023-03-02T06:54:37;24.50;;;14.00;;
2558;SDS011;1289;53.488;10.006;2023-03-02T06:57:04;25.20;;;15.23;;
2558;SDS011;1289;53.488;10.006;2023-03-02T06:59:31;26.53;;;15.57;;
2558;SDS011;1289;53.488;10.006;2023-03-02T07:01:59;21.70;;;14.70;;
2558;SDS011;1289;53.488;10.006;2023-03-02T07:04:26;26.23;;;15.47;;
2558;SDS011;1289;53.488;10.006;2023-03-02T07:06:54;21.67;;;14.90;;
2558;SDS011;1289;53.488;10.006;2023-03-02T07:09:20;24.70;;;14.13;;
2558;SDS011;1289;53.488;10.006;2023-03-02T07:11:47;23.50;;;14.80;;
2558;SDS011;1289;53.488;10.006;2023-03-02T07:14:14;22.47;;;14.97;;
2558;SDS011;1289;53.488;10.006;2023-03-02T07:16:40;24.20;;;15.17;;
2558;SDS011;1289;53.488;10.006;2023-03-02T07:19:10;23.57;;;14.80;;
2558;SDS011;1289;53.488;10.006;2023-03-02T07:21:37;31.40;;;15.80;;
2558;SDS011;1289;53.488;10.006;2023-03-02T07:24:04;27.57;;;14.90;;
2558;SDS011;1289;53.488;10.006;2023-03-02T07:26:31;27.80;;;16.87;;
2558;SDS011;1289;53.488;10.006;2023-03-02T07:28:57;38.87;;;18.90;;
2558;SDS011;1289;53.488;10.006;2023-03-02T07:31:25;33.50;;;15.97;;
2558;SDS011;1289;53.488;10.006;2023-03-02T07:33:51;37.50;;;17.90;;
2558;SDS011;1289;53.488;10.006;2023-03-02T07:36:19;27.93;;;16.77;;
2558;SDS011;1289;53.488;10.006;2023-03-02T07:38:46;29.03;;;16.57;;
2558;SDS011;1289;53.488;10.006;2023-03-02T07:41:13;30.10;;;18.10;;
2558;SDS011;1289;53.488;10.006;2023-03-02T07:43:40;28.57;;;15.30;;
2558;SDS011;1289;53.488;10.006;2023-03-02T07:46:07;28.80;;;14.90;;
2558;SDS011;1289;53.488;10.006;2023-03-02T07:48:34;28.23;;;16.47;;
2558;SDS011;1289;53.488;10.006;2023-03-02T07:51:01;29.47;;;17.17;;
2558;SDS011;1289;53.488;10.006;2023-03-02T07:53:30;25.03;;;15.17;;
2558;SDS011;1289;53.488;10.006;2023-03-02T07:55:57;26.60;;;15.60;;
2558;SDS011;1289;53.488;10.006;2023-03-02T07:58:25;25.97;;;15.90;;
2558;SDS011;1289;53.488;10.006;2023-03-02T08:00:51;25.47;;;14.67;;
2558;SDS011;1289;53.488;10.006;2023-03-02T08:03:18;24.07;;;15.80;;
2558;SDS011;1289;53.488;10.006;2023-03-02T08:05:45;24.30;;;14.80;;
2558;SDS011;1289;53.488;10.006;2023-03-02T08:08:11;24.57;;;15.90;;
2558;SDS011;1289;53.488;10.006;2023-03-02T08:10:39;28.30;;;15.47;;
2558;SDS011;1289;53.488;10.006;2023-03-02T08:13:06;29.97;;;16.20;;
2558;SDS011;1289;53.488;10.006;2023-03-02T08:15:32;27.63;;;15.30;;
2558;SDS011;1289;53.488;10.006;2023-03-02T08:17:59;25.40;;;15.40;;
2558;SDS011;1289;53.488;10.006;2023-03-02T08:20:25;22.00;;;14.70;;
2558;SDS011;1289;53.488;10.006;2023-03-02T08:22:52;33.03;;;16.23;;
2558;SDS011;1289;53.488;10.006;2023-03-02T08:25:45;39.80;;;16.80;;
2558;SDS011;1289;53.488;10.006;2023-03-02T08:28:11;32.63;;;17.07;;
2558;SDS011;1289;53.488;10.006;2023-03-02T08:30:38;26.20;;;16.70;;
2558;SDS011;1289;53.488;10.006;2023-03-02T08:33:04;32.47;;;17.57;;
2558;SDS011;1289;53.488;10.006;2023-03-02T08:35:31;28.63;;;16.63;;
2558;SDS011;1289;53.488;10.006;2023-03-02T08:37:57;27.93;;;16.20;;
2558;SDS011;1289;53.488;10.006;2023-03-02T08:40:24;33.60;;;17.50;;
2558;SDS011;1289;53.488;10.006;2023-03-02T08:42:52;28.87;;;16.40;;
2558;SDS011;1289;53.488;10.006;2023-03-02T08:45:21;28.23;;;16.90;;
2558;SDS011;1289;53.488;10.006;2023-03-02T08:47:48;33.00;;;18.50;;
2558;SDS011;1289;53.488;10.006;2023-03-02T08:50:14;27.67;;;18.80;;
2558;SDS011;1289;53.488;10.006;2023-03-02T08:52:41;31.70;;;16.70;;
2558;SDS011;1289;53.488;10.006;2023-03-02T08:55:08;29.37;;;19.10;;
2558;SDS011;1289;53.488;10.006;2023-03-02T08:57:35;27.67;;;16.43;;
2558;SDS011;1289;53.488;10.006;2023-03-02T09:00:04;33.27;;;18.90;;
2558;SDS011;1289;53.488;10.006;2023-03-02T09:02:33;35.50;;;18.93;;
2558;SDS011;1289;53.488;10.006;2023-03-02T09:05:00;32.47;;;19.00;;
2558;SDS011;1289;53.488;10.006;2023-03-02T09:07:26;34.20;;;20.17;;
2558;SDS011;1289;53.488;10.006;2023-03-02T09:09:54;32.77;;;20.70;;
2558;SDS011;1289;53.488;10.006;2023-03-02T09:12:21;41.00;;;20.07;;
2558;SDS011;1289;53.488;10.006;2023-03-02T09:14:48;36.80;;;19.83;;
2558;SDS011;1289;53.488;10.006;2023-03-02T09:17:16;34.30;;;20.27;;
2558;SDS011;1289;53.488;10.006;2023-03-02T09:19:42;30.63;;;18.47;;
2558;SDS011;1289;53.488;10.006;2023-03-02T09:22:09;34.77;;;17.67;;
2558;SDS011;1289;53.488;10.006;2023-03-02T09:24:36;27.93;;;16.67;;
2558;SDS011;1289;53.488;10.006;2023-03-02T09:27:02;26.73;;;15.47;;
2558;SDS011;1289;53.488;10.006;2023-03-02T09:29:29;28.17;;;16.17;;
2558;SDS011;1289;53.488;10.006;2023-03-02T09:31:56;30.57;;;17.83;;
2558;SDS011;1289;53.488;10.006;2023-03-02T09:34:23;31.07;;;16.80;;
2558;SDS011;1289;53.488;10.006;2023-03-02T09:36:50;27.20;;;16.97;;
2558;SDS011;1289;53.488;10.006;2023-03-02T09:39:17;37.70;;;20.83;;
2558;SDS011;1289;53.488;10.006;2023-03-02T09:44:46;33.20;;;18.90;;
2558;SDS011;1289;53.488;10.006;2023-03-02T09:47:23;30.93;;;19.70;;
2558;SDS011;1289;53.488;10.006;2023-03-02T09:49:56;32.67;;;20.30;;
2558;SDS011;1289;53.488;10.006;2023-03-02T09:52:28;32.07;;;19.50;;
2558;SDS011;1289;53.488;10.006;2023-03-02T09:54:56;35.27;;;20.40;;
2558;SDS011;1289;53.488;10.006;2023-03-02T09:57:27;40.07;;;20.30;;
2558;SDS011;1289;53.488;10.006;2023-03-02T09:59:57;36.37;;;21.73;;
2558;SDS011;1289;53.488;10.006;2023-03-02T10:02:26;41.60;;;22.77;;
2558;SDS011;1289;53.488;10.006;2023-03-02T10:04:57;32.50;;;19.50;;
2558;SDS011;1289;53.488;10.006;2023-03-02T10:07:25;42.80;;;21.90;;
2558;SDS011;1289;53.488;10.006;2023-03-02T10:09:53;39.70;;;25.30;;
2558;SDS011;1289;53.488;10.006;2023-03-02T10:12:25;31.80;;;19.57;;
2558;SDS011;1289;53.488;10.006;2023-03-02T10:15:03;28.17;;;19.63;;
2558;SDS011;1289;53.488;10.006;2023-03-02T10:17:39;35.90;;;23.00;;
2558;SDS011;1289;53.488;10.006;2023-03-02T10:20:13;34.30;;;22.27;;
2558;SDS011;1289;53.488;10.006;2023-03-02T10:22:45;37.83;;;23.07;;
2558;SDS011;1289;53.488;10.006;2023-03-02T10:25:16;32.97;;;20.83;;
2558;SDS011;1289;53.488;10.006;2023-03-02T10:27:49;39.50;;;23.73;;
2558;SDS011;1289;53.488;10.006;2023-03-02T10:30:18;37.20;;;21.20;;
2558;SDS011;1289;53.488;10.006;2023-03-02T10:32:50;31.53;;;21.00;;
2558;SDS011;1289;53.488;10.006;2023-03-02T10:35:19;35.33;;;23.27;;
2558;SDS011;1289;53.488;10.006;2023-03-02T10:37:47;41.93;;;25.00;;
2558;SDS011;1289;53.488;10.006;2023-03-02T10:40:20;40.33;;;26.87;;
2558;SDS011;1289;53.488;10.006;2023-03-02T10:42:55;44.53;;;27.33;;
2558;SDS011;1289;53.488;10.006;2023-03-02T10:45:23;43.77;;;28.37;;
2558;SDS011;1289;53.488;10.006;2023-03-02T10:47:59;46.67;;;27.33;;
2558;SDS011;1289;53.488;10.006;2023-03-02T10:50:28;42.40;;;26.43;;
2558;SDS011;1289;53.488;10.006;2023-03-02T10:52:55;43.47;;;27.57;;
2558;SDS011;1289;53.488;10.006;2023-03-02T10:55:22;44.37;;;29.10;;
2558;SDS011;1289;53.488;10.006;2023-03-02T10:57:57;51.37;;;28.50;;
2558;SDS011;1289;53.488;10.006;2023-03-02T11:00:26;47.23;;;27.60;;
2558;SDS011;1289;53.488;10.006;2023-03-02T11:02:54;55.70;;;29.13;;
2558;SDS011;1289;53.488;10.006;2023-03-02T11:05:26;43.90;;;27.33;;
2558;SDS011;1289;53.488;10.006;2023-03-02T11:07:56;39.27;;;27.00;;
2558;SDS011;1289;53.488;10.006;2023-03-02T11:10:24;48.57;;;27.03;;
2558;SDS011;1289;53.488;10.006;2023-03-02T11:12:53;46.40;;;31.07;;
2558;SDS011;1289;53.488;10.006;2023-03-02T11:15:21;52.80;;;31.10;;
2558;SDS011;1289;53.488;10.006;2023-03-02T11:17:51;39.00;;;25.87;;
2558;SDS011;1289;53.488;10.006;2023-03-02T11:20:22;43.43;;;27.30;;
2558;SDS011;1289;53.488;10.006;2023-03-02T11:22:59;39.37;;;24.90;;
2558;SDS011;1289;53.488;10.006;2023-03-02T11:25:32;35.50;;;24.80;;
2558;SDS011;1289;53.488;10.006;2023-03-02T11:28:04;34.27;;;22.60;;
2558;SDS011;1289;53.488;10.006;2023-03-02T11:30:36;34.03;;;22.60;;
2558;SDS011;1289;53.488;10.006;2023-03-02T11:33:06;37.67;;;22.30;;
2558;SDS011;1289;53.488;10.006;2023-03-02T11:35:37;31.47;;;21.17;;
2558;SDS011;1289;53.488;10.006;2023-03-02T11:38:12;26.60;;;18.13;;
2558;SDS011;1289;53.488;10.006;2023-03-02T11:40:44;24.67;;;18.93;;
2558;SDS011;1289;53.488;10.006;2023-03-02T11:43:12;22.30;;;17.10;;
2558;SDS011;1289;53.488;10.006;2023-03-02T11:45:40;31.50;;;21.53;;
2558;SDS011;1289;53.488;10.006;2023-03-02T11:48:11;26.53;;;19.07;;
2558;SDS011;1289;53.488;10.006;2023-03-02T11:50:44;26.60;;;19.10;;
2558;SDS011;1289;53.488;10.006;2023-03-02T11:53:20;23.60;;;18.13;;
2558;SDS011;1289;53.488;10.006;2023-03-02T11:55:48;22.40;;;16.00;;
2558;SDS011;1289;53.488;10.006;2023-03-02T11:58:16;21.27;;;15.50;;
2558;SDS011;1289;53.488;10.006;2023-03-02T12:00:44;19.00;;;15.80;;
2558;SDS011;1289;53.488;10.006;2023-03-02T12:03:18;19.53;;;14.30;;
2558;SDS011;1289;53.488;10.006;2023-03-02T12:05:58;21.83;;;16.43;;
2558;SDS011;1289;53.488;10.006;2023-03-02T12:08:32;22.20;;;15.23;;
2558;SDS011;1289;53.488;10.006;2023-03-02T12:11:03;22.13;;;14.80;;
2558;SDS011;1289;53.488;10.006;2023-03-02T12:13:32;19.27;;;14.47;;
2558;SDS011;1289;53.488;10.006;2023-03-02T12:16:00;23.50;;;14.97;;
2558;SDS011;1289;53.488;10.006;2023-03-02T12:18:28;18.70;;;14.50;;
2558;SDS011;1289;53.488;10.006;2023-03-02T12:21:12;19.40;;;13.90;;
2558;SDS011;1289;53.488;10.006;2023-03-02T12:23:53;19.47;;;14.23;;
2558;SDS011;1289;53.488;10.006;2023-03-02T12:26:26;19.67;;;15.67;;
2558;SDS011;1289;53.488;10.006;2023-03-02T12:28:56;21.87;;;15.30;;
2558;SDS011;1289;53.488;10.006;2023-03-02T12:31:25;18.43;;;13.90;;
2558;SDS011;1289;53.488;10.006;2023-03-02T12:33:53;16.20;;;13.10;;
2558;SDS011;1289;53.488;10.006;2023-03-02T12:36:23;19.00;;;14.67;;
2558;SDS011;1289;53.488;10.006;2023-03-02T12:41:49;31.43;;;19.10;;
2558;SDS011;1289;53.488;10.006;2023-03-02T12:44:28;26.90;;;19.60;;
2558;SDS011;1289;53.488;10.006;2023-03-02T12:47:02;23.80;;;19.90;;
2558;SDS011;1289;53.488;10.006;2023-03-02T12:52:18;26.43;;;19.23;;
2558;SDS011;1289;53.488;10.006;2023-03-02T12:54:57;22.53;;;15.70;;
2558;SDS011;1289;53.488;10.006;2023-03-02T12:57:26;25.53;;;17.07;;
2558;SDS011;1289;53.488;10.006;2023-03-02T12:59:54;27.17;;;19.10;;
2558;SDS011;1289;53.488;10.006;2023-03-02T13:02:23;32.67;;;23.93;;
2558;SDS011;1289;53.488;10.006;2023-03-02T13:04:52;29.30;;;20.70;;
2558;SDS011;1289;53.488;10.006;2023-03-02T13:07:23;29.83;;;22.30;;
2558;SDS011;1289;53.488;10.006;2023-03-02T13:09:54;32.13;;;23.73;;
2558;SDS011;1289;53.488;10.006;2023-03-02T13:12:26;33.30;;;22.40;;
2558;SDS011;1289;53.488;10.006;2023-03-02T13:14:55;30.30;;;21.80;;
2558;SDS011;1289;53.488;10.006;2023-03-02T13:17:25;33.67;;;24.37;;
2558;SDS011;1289;53.488;10.006;2023-03-02T13:19:55;30.03;;;21.80;;
2558;SDS011;1289;53.488;10.006;2023-03-02T13:22:23;26.13;;;18.60;;
2558;SDS011;1289;53.488;10.006;2023-03-02T13:24:56;26.73;;;19.30;;
2558;SDS011;1289;53.488;10.006;2023-03-02T13:27:25;29.43;;;22.93;;
2558;SDS011;1289;53.488;10.006;2023-03-02T13:29:53;31.80;;;23.70;;
2558;SDS011;1289;53.488;10.006;2023-03-02T13:32:23;33.10;;;23.57;;
2558;SDS011;1289;53.488;10.006;2023-03-02T13:34:53;31.67;;;23.97;;
2558;SDS011;1289;53.488;10.006;2023-03-02T13:37:26;29.47;;;20.27;;
2558;SDS011;1289;53.488;10.006;2023-03-02T13:40:01;29.07;;;19.90;;
2558;SDS011;1289;53.488;10.006;2023-03-02T13:42:35;28.80;;;19.60;;
2558;SDS011;1289;53.488;10.006;2023-03-02T13:45:07;30.63;;;22.47;;
2558;SDS011;1289;53.488;10.006;2023-03-02T13:47:47;44.77;;;23.50;;
2558;SDS011;1289;53.488;10.006;2023-03-02T13:50:16;32.50;;;23.50;;
2558;SDS011;1289;53.488;10.006;2023-03-02T13:52:43;35.60;;;26.67;;
2558;SDS011;1289;53.488;10.006;2023-03-02T13:55:13;36.60;;;26.13;;
2558;SDS011;1289;53.488;10.006;2023-03-02T13:57:40;38.77;;;27.80;;
2558;SDS011;1289;53.488;10.006;2023-03-02T14:00:10;42.33;;;27.97;;
2558;SDS011;1289;53.488;10.006;2023-03-02T14:02:39;47.07;;;29.10;;
2558;SDS011;1289;53.488;10.006;2023-03-02T14:05:08;39.07;;;27.40;;
2558;SDS011;1289;53.488;10.006;2023-03-02T14:07:36;35.47;;;25.17;;
2558;SDS011;1289;53.488;10.006;2023-03-02T14:10:03;39.07;;;23.87;;
2558;SDS011;1289;53.488;10.006;2023-03-02T14:12:32;40.83;;;27.57;;
2558;SDS011;1289;53.488;10.006;2023-03-02T14:14:59;33.60;;;22.10;;
2558;SDS011;1289;53.488;10.006;2023-03-02T14:17:27;35.63;;;23.77;;
2558;SDS011;1289;53.488;10.006;2023-03-02T14:19:53;43.90;;;23.97;;
2558;SDS011;1289;53.488;10.006;2023-03-02T14:22:20;36.03;;;22.97;;
2558;SDS011;1289;53.488;10.006;2023-03-02T14:24:48;41.23;;;25.53;;
2558;SDS011;1289;53.488;10.006;2023-03-02T14:27:15;34.13;;;24.67;;
2558;SDS011;1289;53.488;10.006;2023-03-02T14:29:44;34.83;;;25.93;;
2558;SDS011;1289;53.488;10.006;2023-03-02T14:32:11;43.57;;;28.53;;
2558;SDS011;1289;53.488;10.006;2023-03-02T14:34:39;42.27;;;30.00;;
2558;SDS011;1289;53.488;10.006;2023-03-02T14:37:07;45.57;;;29.90;;
2558;SDS011;1289;53.488;10.006;2023-03-02T14:39:37;41.87;;;28.90;;
2558;SDS011;1289;53.488;10.006;2023-03-02T14:42:04;44.30;;;28.90;;
2558;SDS011;1289;53.488;10.006;2023-03-02T14:44:34;41.70;;;27.13;;
2558;SDS011;1289;53.488;10.006;2023-03-02T14:47:01;39.63;;;27.77;;
2558;SDS011;1289;53.488;10.006;2023-03-02T14:49:28;37.47;;;25.90;;
2558;SDS011;1289;53.488;10.006;2023-03-02T14:51:57;33.87;;;23.97;;